Time;durP1;ratioP1;P1;durP2;ratioP2;P2;SDS_P1;SDS_P2;PMS_P1;PMS_P2;Temp;Humidity;BMP_temperature;BMP_pressure;BME280_temperature;BME280_humidity;BME280_pressure;Samples;Min_cycle;Max_cycle;Signal;HPM_P1;HPM_P2
2022/03/25 00:01:58;;;;;;;7.40;2.72;;;23.20;99.90;;;;;;5069336;28;20378;-80
2022/03/25 00:04:25;;;;;;;9.18;3.20;;;23.20;99.90;;;;;;5069455;28;20370;-79
2022/03/25 00:06:53;;;;;;;5.90;3.05;;;23.30;99.90;;;;;;5069209;28;20734;-80
2022/03/25 00:09:20;;;;;;;6.27;2.63;;;23.40;99.90;;;;;;5069178;28;20370;-81
2022/03/25 00:11:47;;;;;;;7.70;2.85;;;23.30;99.90;;;;;;5069644;28;20800;-77
2022/03/25 00:14:14;;;;;;;10.43;3.17;;;23.00;99.90;;;;;;5069606;28;20402;-79
2022/03/25 00:16:44;;;;;;;6.75;3.22;;;22.80;99.90;;;;;;5086456;28;20412;-79
2022/03/25 00:19:13;;;;;;;8.30;2.47;;;22.60;99.90;;;;;;5055643;28;20472;-83
2022/03/25 00:21:40;;;;;;;7.23;2.53;;;22.40;99.90;;;;;;5070040;28;20443;-78
2022/03/25 00:24:07;;;;;;;8.18;2.80;;;22.30;99.90;;;;;;5052173;28;20880;-79
2022/03/25 00:26:34;;;;;;;8.32;2.53;;;22.20;99.90;;;;;;5088944;28;20404;-80
2022/03/25 00:29:01;;;;;;;6.95;2.80;;;22.30;99.90;;;;;;5088299;28;20384;-81
2022/03/25 00:31:28;;;;;;;7.78;2.70;;;22.20;99.90;;;;;;5070786;28;20406;-78
2022/03/25 00:33:55;;;;;;;5.53;2.40;;;22.10;99.90;;;;;;5070518;28;20383;-81
2022/03/25 00:36:23;;;;;;;8.17;2.67;;;22.10;99.90;;;;;;5070397;28;20734;-81
2022/03/25 00:38:50;;;;;;;6.32;2.70;;;22.30;99.90;;;;;;5052982;28;20382;-81
2022/03/25 00:41:18;;;;;;;8.77;2.58;;;22.50;99.90;;;;;;5052519;28;20750;-79
2022/03/25 00:43:46;;;;;;;6.95;2.72;;;22.90;99.90;;;;;;5070731;28;20461;-82
2022/03/25 00:46:15;;;;;;;7.13;2.92;;;23.20;99.90;;;;;;5071441;28;20374;-81
2022/03/25 00:48:42;;;;;;;10.02;3.10;;;23.40;99.90;;;;;;5090660;28;20388;-83
2022/03/25 00:51:10;;;;;;;5.57;2.70;;;23.30;99.90;;;;;;5077872;28;20402;-88
2022/03/25 00:53:38;;;;;;;7.03;2.60;;;23.10;99.90;;;;;;5072756;28;20457;-88
2022/03/25 00:56:06;;;;;;;7.78;2.53;;;22.90;99.90;;;;;;5055699;28;20856;-89
2022/03/25 00:58:33;;;;;;;5.97;2.60;;;22.80;99.90;;;;;;5076382;28;20382;-91
2022/03/25 01:01:00;;;;;;;7.90;2.45;;;22.60;99.90;;;;;;5074146;28;20479;-93
2022/03/25 01:03:27;;;;;;;7.97;2.50;;;22.30;99.90;;;;;;5074652;28;20390;-90
2022/03/25 01:05:54;;;;;;;6.32;2.33;;;22.10;99.90;;;;;;5092353;28;20384;-87
2022/03/25 01:08:27;;;;;;;9.68;3.28;;;21.80;99.90;;;;;;5093464;28;20864;-86
2022/03/25 01:10:54;;;;;;;9.00;3.33;;;21.60;99.90;;;;;;5103723;28;20410;-86
2022/03/25 01:13:34;;;;;;;9.88;3.50;;;21.50;99.90;;;;;;5089565;28;20406;-92
2022/03/25 01:16:16;;;;;;;8.23;3.22;;;21.50;99.90;;;;;;5075929;28;20380;-89
2022/03/25 01:18:45;;;;;;;11.23;3.30;;;21.50;99.90;;;;;;5090872;28;20467;-90
2022/03/25 01:21:24;;;;;;;8.57;3.08;;;21.50;99.90;;;;;;5063091;28;20895;-87
2022/03/25 01:24:04;;;;;;;8.48;2.80;;;21.60;99.90;;;;;;5008649;28;20389;-85
2022/03/25 01:26:40;;;;;;;7.47;2.80;;;21.70;99.90;;;;;;5111690;28;20384;-85
2022/03/25 01:29:07;;;;;;;10.23;4.97;;;21.80;99.90;;;;;;5046083;28;20475;-83
2022/03/25 01:31:34;;;;;;;6.75;2.90;;;21.90;99.90;;;;;;5097056;28;20435;-84
2022/03/25 01:34:08;;;;;;;7.15;2.95;;;22.10;99.90;;;;;;5103677;28;20396;-81
2022/03/25 01:36:35;;;;;;;8.18;2.92;;;22.20;99.90;;;;;;5086131;28;20736;-85
2022/03/25 01:39:08;;;;;;;8.85;2.60;;;22.30;99.90;;;;;;5097629;28;20411;-82
2022/03/25 01:41:35;;;;;;;7.47;2.25;;;22.30;99.90;;;;;;5079402;28;20374;-83
2022/03/25 01:44:04;;;;;;;6.25;2.20;;;22.40;99.90;;;;;;5073773;28;20406;-84
2022/03/25 01:46:32;;;;;;;5.00;1.98;;;22.50;99.90;;;;;;5073686;28;20530;-84
2022/03/25 01:48:59;;;;;;;5.75;1.95;;;22.60;99.90;;;;;;5092107;28;20396;-81
2022/03/25 01:51:33;;;;;;;7.88;1.98;;;23.00;99.90;;;;;;5097643;28;20445;-84
2022/03/25 01:54:26;;;;;;;5.35;1.80;;;23.50;99.90;;;;;;5094640;28;20377;-83
2022/03/25 01:57:03;;;;;;;5.95;1.80;;;24.20;99.90;;;;;;5087874;28;20475;-84
2022/03/25 01:59:30;;;;;;;4.32;1.67;;;25.30;99.90;;;;;;5094966;28;20360;-82
2022/03/25 02:01:58;;;;;;;6.30;1.92;;;25.80;99.90;;;;;;5095738;28;20458;-79
2022/03/25 02:04:26;;;;;;;5.10;1.83;;;26.40;99.90;;;;;;5095126;28;20392;-87
2022/03/25 02:06:53;;;;;;;4.53;2.03;;;26.30;99.90;;;;;;5096961;28;20453;-92
2022/03/25 02:09:28;;;;;;;4.90;1.90;;;26.00;99.90;;;;;;5098336;28;20929;-84
2022/03/25 02:12:06;;;;;;;6.20;2.20;;;25.60;99.90;;;;;;5102884;28;20825;-81
2022/03/25 02:14:34;;;;;;;5.37;2.00;;;25.30;99.90;;;;;;5103488;28;20376;-80
2022/03/25 02:17:03;;;;;;;5.20;1.83;;;25.10;99.90;;;;;;5102498;28;20369;-84
2022/03/25 02:19:36;;;;;;;6.55;2.20;;;25.40;99.90;;;;;;5104662;28;20376;-88
2022/03/25 02:22:15;;;;;;;5.72;1.83;;;25.70;99.90;;;;;;5107539;28;20433;-91
2022/03/25 02:24:41;;;;;;;5.45;2.00;;;25.70;99.90;;;;;;5103256;28;20360;-89
2022/03/25 02:27:13;;;;;;;6.03;2.20;;;25.60;99.90;;;;;;5105367;28;20384;-88
2022/03/25 02:29:40;;;;;;;5.57;1.90;;;25.50;99.90;;;;;;5100396;28;20848;-79
2022/03/25 02:32:07;;;;;;;6.10;1.90;;;25.50;99.90;;;;;;5101432;28;20391;-91
2022/03/25 02:34:37;;;;;;;3.60;1.87;;;25.90;99.90;;;;;;5107251;28;20430;-90
2022/03/25 02:37:08;;;;;;;3.83;1.80;;;26.60;99.90;;;;;;5105949;28;20372;-79
2022/03/25 02:39:53;;;;;;;5.65;2.05;;;27.60;99.80;;;;;;5105636;28;20384;-91
2022/03/25 02:42:20;;;;;;;5.32;2.00;;;28.00;97.80;;;;;;5108039;28;20356;-88
2022/03/25 02:44:48;;;;;;;4.22;1.70;;;28.30;97.10;;;;;;5104037;28;20479;-90
2022/03/25 02:47:18;;;;;;;5.15;1.92;;;28.50;95.90;;;;;;5108081;28;20404;-79
2022/03/25 02:49:47;;;;;;;71.47;9.00;;;28.10;95.10;;;;;;5098308;28;20403;-85
2022/03/25 02:52:14;;;;;;;11.88;2.58;;;27.40;96.90;;;;;;5092776;28;20396;-85
2022/03/25 02:54:41;;;;;;;7.93;2.03;;;26.70;99.00;;;;;;5091146;28;20443;-83
2022/03/25 02:57:08;;;;;;;14.35;3.03;;;26.30;99.90;;;;;;5092957;28;20442;-93
2022/03/25 02:59:35;;;;;;;4.38;1.70;;;26.20;99.90;;;;;;5093412;28;20876;-87
2022/03/25 03:02:02;;;;;;;4.13;1.58;;;26.10;99.90;;;;;;5094769;28;20384;-91
2022/03/25 03:04:30;;;;;;;4.72;1.80;;;26.30;99.90;;;;;;5094899;28;20471;-81
2022/03/25 03:06:57;;;;;;;4.95;1.50;;;26.70;99.90;;;;;;5095640;28;20368;-81
2022/03/25 03:09:24;;;;;;;3.80;1.67;;;26.80;99.50;;;;;;5095551;28;20867;-86
2022/03/25 03:11:51;;;;;;;5.05;1.60;;;26.40;99.80;;;;;;5093866;28;20910;-83
2022/03/25 03:14:20;;;;;;;5.07;1.60;;;26.70;99.70;;;;;;5095155;28;20830;-89
2022/03/25 03:16:47;;;;;;;3.13;1.40;;;26.90;97.80;;;;;;5095947;28;20420;-82
2022/03/25 03:19:15;;;;;;;6.07;1.80;;;27.60;97.50;;;;;;5093770;28;20388;-81
2022/03/25 03:21:42;;;;;;;3.95;1.48;;;28.10;96.30;;;;;;5096353;28;20373;-81
2022/03/25 03:24:09;;;;;;;4.45;1.50;;;28.80;93.70;;;;;;5096544;28;20369;-91
2022/03/25 03:26:38;;;;;;;4.35;1.50;;;28.90;90.70;;;;;;5095906;28;20469;-93
2022/03/25 03:29:05;;;;;;;5.63;1.60;;;28.70;90.50;;;;;;5097193;28;20364;-90
2022/03/25 03:31:32;;;;;;;3.45;1.40;;;28.00;91.30;;;;;;5097719;28;20824;-88
2022/03/25 03:34:02;;;;;;;3.83;1.60;;;27.50;92.90;;;;;;5096637;28;20452;-81
2022/03/25 03:36:29;;;;;;;4.00;1.52;;;27.40;93.20;;;;;;5096961;28;20871;-84
2022/03/25 03:38:56;;;;;;;4.65;1.30;;;27.30;93.30;;;;;;5097127;28;20735;-92
2022/03/25 03:41:23;;;;;;;3.20;1.38;;;27.10;93.90;;;;;;5094347;28;20381;-85
2022/03/25 03:43:49;;;;;;;4.60;1.52;;;26.50;96.20;;;;;;5092577;28;20479;-86
2022/03/25 03:46:16;;;;;;;4.55;1.50;;;26.60;96.60;;;;;;5093545;28;20479;-83
2022/03/25 03:48:43;;;;;;;3.58;1.42;;;27.20;95.10;;;;;;5093004;28;20940;-82
2022/03/25 03:51:11;;;;;;;4.25;1.80;;;27.70;93.60;;;;;;5095317;28;20469;-89
2022/03/25 03:53:38;;;;;;;3.50;1.60;;;28.10;91.50;;;;;;5096614;28;20467;-82
2022/03/25 03:56:06;;;;;;;4.55;1.63;;;28.60;91.50;;;;;;5095605;28;20939;-85
2022/03/25 03:58:33;;;;;;;4.25;1.67;;;28.50;89.20;;;;;;5095804;28;20387;-84
2022/03/25 04:01:00;;;;;;;4.18;1.75;;;27.70;90.20;;;;;;5094495;28;20379;-81
2022/03/25 04:03:29;;;;;;;5.35;1.70;;;27.20;91.20;;;;;;5093037;28;20463;-87
2022/03/25 04:05:57;;;;;;;5.10;1.90;;;26.80;92.10;;;;;;5093650;28;20415;-93
2022/03/25 04:08:24;;;;;;;5.30;1.60;;;26.40;93.70;;;;;;5094126;28;20383;-88
2022/03/25 04:10:52;;;;;;;6.05;1.90;;;26.10;94.80;;;;;;5093959;28;20732;-81
2022/03/25 04:13:19;;;;;;;6.20;1.88;;;25.70;94.40;;;;;;5093440;28;20761;-86
2022/03/25 04:15:45;;;;;;;5.13;1.73;;;25.50;96.20;;;;;;5091869;28;20427;-86
2022/03/25 04:18:12;;;;;;;5.00;1.70;;;25.30;97.00;;;;;;5091040;28;20392;-92
2022/03/25 04:20:39;;;;;;;6.55;2.03;;;25.10;97.00;;;;;;5093612;28;20381;-90
2022/03/25 04:23:06;;;;;;;11.52;2.67;;;24.90;98.70;;;;;;5093472;28;20421;-85
2022/03/25 04:25:33;;;;;;;9.45;3.05;;;24.80;99.90;;;;;;5090170;28;20384;-83
2022/03/25 04:28:01;;;;;;;10.57;2.60;;;24.10;99.90;;;;;;5089016;28;20396;-91
2022/03/25 04:30:32;;;;;;;9.30;2.53;;;23.50;99.90;;;;;;5089212;28;20419;-86
2022/03/25 04:33:00;;;;;;;11.35;2.72;;;22.80;99.90;;;;;;5091558;28;20812;-79
2022/03/25 04:35:28;;;;;;;8.83;2.80;;;22.30;99.90;;;;;;5089872;28;20384;-92
2022/03/25 04:37:56;;;;;;;8.18;2.67;;;22.00;99.90;;;;;;5089208;28;20435;-84
2022/03/25 04:40:26;;;;;;;8.80;2.57;;;21.60;99.90;;;;;;5088566;28;21217;-88
2022/03/25 04:42:54;;;;;;;7.97;2.70;;;21.50;99.90;;;;;;5089283;28;20392;-84
2022/03/25 04:45:22;;;;;;;8.20;2.87;;;21.50;99.90;;;;;;5088544;28;20400;-82
2022/03/25 04:47:50;;;;;;;9.18;2.60;;;21.50;99.90;;;;;;5089197;28;20426;-90
2022/03/25 04:50:20;;;;;;;10.57;3.20;;;21.50;99.90;;;;;;5092196;28;20420;-92
2022/03/25 04:52:47;;;;;;;10.35;2.95;;;21.60;99.90;;;;;;5098106;28;20408;-90
2022/03/25 04:55:15;;;;;;;8.75;2.60;;;21.80;99.90;;;;;;5095935;28;20380;-91
2022/03/25 04:57:43;;;;;;;14.37;2.80;;;22.20;99.90;;;;;;5094918;28;20380;-90
2022/03/25 05:00:11;;;;;;;10.57;2.90;;;22.60;99.90;;;;;;5096186;28;20438;-88
2022/03/25 05:02:38;;;;;;;10.55;2.25;;;23.00;99.90;;;;;;5092401;28;20887;-91
2022/03/25 05:05:06;;;;;;;7.07;2.20;;;23.10;99.90;;;;;;5093723;28;20396;-84
2022/03/25 05:07:33;;;;;;;10.70;2.45;;;23.10;99.90;;;;;;5095139;28;20385;-81
2022/03/25 05:10:01;;;;;;;9.02;2.20;;;23.00;99.90;;;;;;5107589;28;20376;-81
2022/03/25 05:12:30;;;;;;;8.55;2.10;;;23.10;99.90;;;;;;5104597;28;20404;-80
2022/03/25 05:14:57;;;;;;;8.05;2.45;;;23.00;99.90;;;;;;5103719;28;20377;-79
2022/03/25 05:17:24;;;;;;;8.02;2.40;;;22.80;99.90;;;;;;5104169;28;20396;-83
2022/03/25 05:19:51;;;;;;;8.40;2.42;;;22.80;99.90;;;;;;5101917;28;20404;-80
2022/03/25 05:22:18;;;;;;;9.20;2.17;;;22.80;99.90;;;;;;5112252;28;20957;-83
2022/03/25 05:24:44;;;;;;;9.23;2.40;;;22.90;99.90;;;;;;5113094;28;20352;-83
2022/03/25 05:27:11;;;;;;;8.87;2.40;;;22.90;99.90;;;;;;5114070;28;20377;-84
2022/03/25 05:29:38;;;;;;;7.25;2.20;;;23.00;99.90;;;;;;5113738;28;20383;-85
2022/03/25 05:32:06;;;;;;;7.50;2.20;;;22.90;99.90;;;;;;5113790;28;20488;-87
2022/03/25 05:34:33;;;;;;;11.67;2.60;;;22.90;99.90;;;;;;5114905;28;20391;-81
2022/03/25 05:37:00;;;;;;;8.27;2.45;;;23.10;99.90;;;;;;5108987;28;20376;-84
2022/03/25 05:39:27;;;;;;;8.32;2.45;;;23.20;99.90;;;;;;5100662;28;20376;-84
2022/03/25 05:41:54;;;;;;;9.02;2.40;;;23.10;99.90;;;;;;5098809;28;20387;-85
2022/03/25 05:44:20;;;;;;;5.38;1.95;;;22.90;99.90;;;;;;5109943;28;20379;-88
2022/03/25 05:46:47;;;;;;;7.38;2.13;;;22.70;99.90;;;;;;5096975;28;20368;-86
2022/03/25 05:49:14;;;;;;;7.03;2.00;;;22.60;99.90;;;;;;5096520;28;20402;-86
2022/03/25 05:51:41;;;;;;;5.53;1.80;;;22.50;99.90;;;;;;5080211;28;20932;-88
2022/03/25 05:54:08;;;;;;;5.55;1.90;;;22.30;99.90;;;;;;5090053;28;20533;-88
2022/03/25 05:56:36;;;;;;;6.57;1.92;;;22.20;99.90;;;;;;5095523;28;20427;-86
2022/03/25 05:59:03;;;;;;;6.13;1.80;;;22.10;99.90;;;;;;5080051;28;20387;-86
2022/03/25 06:01:30;;;;;;;7.80;2.10;;;22.00;99.90;;;;;;5063453;28;20370;-86
2022/03/25 06:03:57;;;;;;;8.07;2.10;;;21.90;99.90;;;;;;5071174;28;20447;-90
2022/03/25 06:06:24;;;;;;;6.72;2.20;;;21.90;99.90;;;;;;5065177;28;20394;-82
2022/03/25 06:08:51;;;;;;;5.50;2.00;;;21.90;99.90;;;;;;5072334;28;20459;-87
2022/03/25 06:11:18;;;;;;;5.63;2.00;;;21.80;99.90;;;;;;5074445;28;20392;-82
2022/03/25 06:13:45;;;;;;;7.53;2.20;;;21.80;99.90;;;;;;5059596;28;20417;-83
2022/03/25 06:16:12;;;;;;;5.10;2.20;;;21.80;99.90;;;;;;5051373;28;20390;-81
2022/03/25 06:18:39;;;;;;;8.05;2.30;;;21.80;99.90;;;;;;5064175;28;20435;-82
2022/03/25 06:21:06;;;;;;;9.15;2.50;;;21.90;99.90;;;;;;5093114;28;20376;-86
2022/03/25 06:23:33;;;;;;;6.50;2.00;;;21.90;99.90;;;;;;5081547;28;20393;-87
2022/03/25 06:26:00;;;;;;;5.25;2.00;;;21.70;99.90;;;;;;5054856;28;20378;-84
2022/03/25 06:28:27;;;;;;;4.60;2.08;;;21.50;99.90;;;;;;5062569;28;20388;-90
2022/03/25 06:30:54;;;;;;;5.00;2.00;;;21.30;99.90;;;;;;5070985;28;20415;-86
2022/03/25 06:33:21;;;;;;;4.13;1.80;;;21.20;99.90;;;;;;5074939;28;20386;-87
2022/03/25 06:35:48;;;;;;;5.18;1.90;;;21.00;99.90;;;;;;5062306;28;20378;-89
2022/03/25 06:38:15;;;;;;;4.47;1.83;;;20.90;99.90;;;;;;5070305;28;20397;-85
2022/03/25 06:40:42;;;;;;;6.05;1.77;;;20.70;99.90;;;;;;5063604;28;20736;-88
2022/03/25 06:43:09;;;;;;;4.53;1.80;;;20.70;99.90;;;;;;5064207;28;20386;-87
2022/03/25 06:45:36;;;;;;;4.88;1.80;;;20.60;99.90;;;;;;5087332;28;20391;-82
2022/03/25 06:48:03;;;;;;;4.25;2.10;;;20.60;99.90;;;;;;5076175;28;20404;-85
2022/03/25 06:50:31;;;;;;;3.72;1.60;;;20.50;99.90;;;;;;5093442;28;20852;-89
2022/03/25 06:53:01;;;;;;;6.77;2.40;;;20.40;99.90;;;;;;5092744;28;20451;-86
2022/03/25 06:55:28;;;;;;;9.50;3.35;;;20.40;99.90;;;;;;5091965;28;20925;-87
2022/03/25 06:57:55;;;;;;;6.50;2.73;;;20.40;99.90;;;;;;5092842;28;20523;-88
2022/03/25 07:00:24;;;;;;;5.93;2.08;;;20.40;99.90;;;;;;5092508;28;20881;-88
2022/03/25 07:02:52;;;;;;;8.00;2.65;;;20.40;99.90;;;;;;5092660;28;20373;-89
2022/03/25 07:05:19;;;;;;;6.45;2.67;;;20.50;99.90;;;;;;5093191;28;20890;-89
2022/03/25 07:07:46;;;;;;;8.85;2.60;;;20.50;99.90;;;;;;5092400;28;20892;-85
2022/03/25 07:10:15;;;;;;;4.05;1.88;;;20.50;99.90;;;;;;5092553;28;20384;-87
2022/03/25 07:12:45;;;;;;;4.57;1.73;;;20.60;99.90;;;;;;5092310;28;21077;-87
2022/03/25 07:15:12;;;;;;;4.80;2.10;;;20.60;99.90;;;;;;5091499;28;20384;-85
2022/03/25 07:17:43;;;;;;;5.45;2.00;;;20.60;99.90;;;;;;5092295;28;20368;-89
2022/03/25 07:20:15;;;;;;;4.65;2.15;;;20.50;99.90;;;;;;5092424;28;20425;-84
2022/03/25 07:22:47;;;;;;;4.68;2.08;;;20.50;99.90;;;;;;5092758;28;20380;-85
2022/03/25 07:25:14;;;;;;;8.15;2.55;;;20.50;99.90;;;;;;5092581;28;20405;-87
2022/03/25 07:27:44;;;;;;;6.00;2.10;;;20.90;99.90;;;;;;5094133;28;20368;-88
2022/03/25 07:30:13;;;;;;;3.60;1.60;;;21.40;99.90;;;;;;5095961;28;20384;-86
2022/03/25 07:32:41;;;;;;;5.03;1.80;;;21.80;99.90;;;;;;5093939;28;20408;-82
2022/03/25 07:35:09;;;;;;;4.93;1.88;;;21.90;99.90;;;;;;5092969;28;20395;-89
2022/03/25 07:37:41;;;;;;;4.38;1.90;;;21.60;99.90;;;;;;5092017;28;20380;-85
2022/03/25 07:40:10;;;;;;;4.78;2.00;;;21.30;99.90;;;;;;5091941;28;20474;-87
2022/03/25 07:42:38;;;;;;;4.85;2.30;;;21.10;99.90;;;;;;5092162;28;20364;-90
2022/03/25 07:45:08;;;;;;;5.25;2.20;;;20.90;99.90;;;;;;5091683;28;20372;-86
2022/03/25 07:47:46;;;;;;;7.03;2.45;;;20.70;99.90;;;;;;5091529;28;20887;-87
2022/03/25 07:50:16;;;;;;;6.33;2.57;;;20.50;99.90;;;;;;5091867;28;20372;-87
2022/03/25 07:52:44;;;;;;;6.32;2.33;;;20.40;99.90;;;;;;5091739;28;20515;-84
2022/03/25 07:55:11;;;;;;;7.50;2.75;;;20.30;99.90;;;;;;5090296;28;20475;-88
2022/03/25 07:57:42;;;;;;;8.90;2.53;;;20.20;99.90;;;;;;5090688;28;20462;-85
2022/03/25 08:00:14;;;;;;;10.20;2.90;;;20.10;99.90;;;;;;5091787;28;20447;-81
2022/03/25 08:02:42;;;;;;;9.70;2.55;;;20.10;99.90;;;;;;5091914;28;20373;-84
2022/03/25 08:05:10;;;;;;;9.50;2.70;;;20.00;99.90;;;;;;5091274;28;20463;-83
2022/03/25 08:07:54;;;;;;;9.25;2.58;;;19.90;99.90;;;;;;5092524;28;21156;-87
2022/03/25 08:10:24;;;;;;;8.20;2.63;;;19.90;99.90;;;;;;5091549;28;20851;-86
2022/03/25 08:12:51;;;;;;;9.73;2.70;;;19.80;99.90;;;;;;5091400;28;20396;-87
2022/03/25 08:15:18;;;;;;;9.70;2.72;;;19.80;99.90;;;;;;5091592;28;20368;-87
2022/03/25 08:17:57;;;;;;;9.50;2.60;;;19.70;99.90;;;;;;5091483;28;20747;-86
2022/03/25 08:20:37;;;;;;;8.57;2.67;;;19.60;99.90;;;;;;5091286;28;20356;-82
2022/03/25 08:23:07;;;;;;;9.05;2.90;;;19.60;99.90;;;;;;5091459;28;20421;-82
2022/03/25 08:28:20;;;;;;;10.50;2.90;;;19.50;99.90;;;;;;5091715;28;20871;-81
2022/03/25 08:30:47;;;;;;;11.55;3.03;;;19.40;99.90;;;;;;5090268;28;20384;-88
2022/03/25 08:33:15;;;;;;;11.50;3.10;;;19.40;99.90;;;;;;5091742;28;20434;-85
2022/03/25 08:35:43;;;;;;;8.50;2.95;;;19.40;99.90;;;;;;5091128;28;20455;-86
2022/03/25 08:38:12;;;;;;;9.07;3.25;;;19.30;99.90;;;;;;5090483;28;20393;-84
2022/03/25 08:40:39;;;;;;;10.68;3.10;;;19.30;99.90;;;;;;5090878;28;20376;-85
2022/03/25 08:43:07;;;;;;;13.15;3.33;;;19.30;99.90;;;;;;5089622;28;20886;-81
2022/03/25 08:45:34;;;;;;;8.95;3.15;;;19.20;99.90;;;;;;5092253;28;20380;-80
2022/03/25 08:48:02;;;;;;;9.70;3.25;;;19.20;99.90;;;;;;5092646;28;20401;-84
2022/03/25 08:50:30;;;;;;;9.47;3.20;;;19.20;99.90;;;;;;5107338;28;20371;-84
2022/03/25 08:53:00;;;;;;;10.30;3.50;;;19.20;99.90;;;;;;5115547;28;20433;-85
2022/03/25 08:55:27;;;;;;;10.60;3.15;;;19.20;99.90;;;;;;5086748;28;20376;-81
2022/03/25 08:57:54;;;;;;;10.43;2.95;;;18.80;99.90;;;;;;5093128;28;20376;-84
2022/03/25 09:00:21;;;;;;;9.65;3.35;;;19.20;99.90;;;;;;5093346;28;20376;-82
2022/03/25 09:02:48;;;;;;;9.10;2.95;;;19.20;99.90;;;;;;5095407;28;21018;-88
2022/03/25 09:05:16;;;;;;;8.30;2.70;;;19.20;99.90;;;;;;5105376;28;20389;-81
2022/03/25 09:07:44;;;;;;;10.65;3.00;;;19.20;99.90;;;;;;5105998;28;20376;-89
2022/03/25 09:10:18;;;;;;;9.93;3.00;;;19.20;99.90;;;;;;5096864;28;20767;-82
2022/03/25 09:12:46;;;;;;;8.13;2.85;;;19.20;99.90;;;;;;5095953;28;20407;-84
2022/03/25 09:15:18;;;;;;;8.73;3.00;;;19.30;99.90;;;;;;5094108;28;20404;-87
2022/03/25 09:17:49;;;;;;;9.68;2.95;;;19.30;99.90;;;;;;5094358;28;20788;-81
2022/03/25 09:20:16;;;;;;;12.33;3.57;;;19.30;99.90;;;;;;5091804;28;20410;-81
2022/03/25 09:22:44;;;;;;;12.57;4.03;;;19.30;99.90;;;;;;5095357;28;20372;-84
2022/03/25 09:25:13;;;;;;;12.27;3.22;;;19.40;99.90;;;;;;5096313;28;20463;-81
2022/03/25 09:27:46;;;;;;;11.40;3.45;;;19.50;99.90;;;;;;5096928;28;20369;-88
2022/03/25 09:30:16;;;;;;;10.15;3.80;;;19.50;99.90;;;;;;5079287;28;20400;-85
2022/03/25 09:32:44;;;;;;;9.70;3.55;;;19.50;99.90;;;;;;5054536;28;20433;-87
2022/03/25 09:35:13;;;;;;;11.25;3.60;;;19.50;99.90;;;;;;5074788;28;20776;-91
2022/03/25 09:37:47;;;;;;;9.02;3.60;;;19.60;99.90;;;;;;5076233;28;20394;-84
2022/03/25 09:40:25;;;;;;;14.77;3.55;;;19.50;99.90;;;;;;5075668;28;20397;-89
2022/03/25 09:42:57;;;;;;;11.40;3.10;;;19.50;99.90;;;;;;5079669;28;20390;-87
2022/03/25 09:45:26;;;;;;;11.43;3.67;;;19.50;99.90;;;;;;5075585;28;20429;-83
2022/03/25 09:47:56;;;;;;;10.60;3.20;;;19.50;99.90;;;;;;5077399;28;20422;-87
2022/03/25 09:50:25;;;;;;;13.95;6.85;;;19.40;99.90;;;;;;5077907;28;20380;-84
2022/03/25 09:52:56;;;;;;;12.63;3.92;;;19.30;99.90;;;;;;5077787;28;20437;-90
2022/03/25 09:55:25;;;;;;;9.43;3.95;;;19.30;99.90;;;;;;5077502;28;20381;-86
2022/03/25 09:57:52;;;;;;;10.73;3.28;;;19.30;99.90;;;;;;5079174;28;20920;-82
2022/03/25 10:00:22;;;;;;;11.15;3.13;;;19.10;99.90;;;;;;5094055;28;20484;-83
2022/03/25 10:02:50;;;;;;;9.63;3.90;;;19.30;99.90;;;;;;5078030;28;20449;-82
2022/03/25 10:05:28;;;;;;;11.70;3.53;;;19.30;99.90;;;;;;5079066;28;20393;-80
2022/03/25 10:07:55;;;;;;;12.93;3.88;;;19.20;99.90;;;;;;5075372;28;20428;-81
2022/03/25 10:10:29;;;;;;;13.80;3.67;;;19.20;99.90;;;;;;5080946;28;20385;-82
2022/03/25 10:13:04;;;;;;;18.33;4.47;;;19.30;99.90;;;;;;5090204;28;20764;-80
2022/03/25 10:15:39;;;;;;;15.25;4.20;;;19.30;99.90;;;;;;5097932;28;20431;-90
2022/03/25 10:18:09;;;;;;;12.00;4.00;;;19.20;99.90;;;;;;5100493;28;20429;-80
2022/03/25 10:20:42;;;;;;;11.15;3.30;;;19.20;99.90;;;;;;5098652;28;20388;-82
2022/03/25 10:23:18;;;;;;;12.27;3.60;;;19.20;99.90;;;;;;5096353;28;20376;-89
2022/03/25 10:26:00;;;;;;;9.60;3.40;;;19.20;99.90;;;;;;5099449;28;20396;-87
2022/03/25 10:28:44;;;;;;;9.77;3.30;;;19.20;99.90;;;;;;5097924;28;20811;-91
2022/03/25 10:31:20;;;;;;;11.35;3.50;;;19.10;99.90;;;;;;5079691;28;20427;-80
2022/03/25 10:33:57;;;;;;;10.73;3.67;;;19.10;99.90;;;;;;5097581;28;20408;-90
2022/03/25 10:36:26;;;;;;;8.77;3.55;;;19.10;99.90;;;;;;5093583;28;20917;-81
2022/03/25 10:39:00;;;;;;;7.63;3.53;;;18.90;99.90;;;;;;5096763;28;20505;-89
2022/03/25 10:41:50;;;;;;;9.52;3.60;;;19.10;99.90;;;;;;5092976;28;20376;-83
2022/03/25 10:44:17;;;;;;;11.27;3.45;;;19.00;99.90;;;;;;5092915;28;20380;-88
2022/03/25 10:46:45;;;;;;;10.02;3.42;;;19.00;99.90;;;;;;5092969;28;20383;-88
2022/03/25 10:49:15;;;;;;;9.35;3.30;;;19.00;99.90;;;;;;5092418;28;20870;-91
2022/03/25 10:51:45;;;;;;;14.43;3.70;;;18.90;99.90;;;;;;5093526;28;20502;-88
2022/03/25 10:54:14;;;;;;;8.73;3.40;;;18.90;99.90;;;;;;5093330;28;20408;-84
2022/03/25 10:56:49;;;;;;;9.68;3.63;;;18.90;99.90;;;;;;5093692;28;20379;-82
2022/03/25 10:59:54;;;;;;;9.80;3.50;;;18.90;99.90;;;;;;5095372;28;20376;-87
2022/03/25 11:02:22;;;;;;;11.87;3.70;;;18.90;99.90;;;;;;5095727;28;20457;-90
2022/03/25 11:04:50;;;;;;;10.98;3.70;;;18.90;99.90;;;;;;5095437;28;20735;-85
2022/03/25 11:07:18;;;;;;;8.98;3.80;;;18.80;99.90;;;;;;5093730;28;20786;-80
2022/03/25 11:09:45;;;;;;;9.15;3.65;;;18.80;99.90;;;;;;5093484;28;20376;-83
2022/03/25 11:12:13;;;;;;;9.38;4.00;;;18.80;99.90;;;;;;5092605;28;20396;-84
2022/03/25 11:14:39;;;;;;;10.13;4.60;;;18.70;99.90;;;;;;5094605;28;20475;-80
2022/03/25 11:17:10;;;;;;;9.15;4.30;;;18.60;99.90;;;;;;5092085;28;20443;-88
2022/03/25 11:19:38;;;;;;;8.43;3.97;;;18.60;99.90;;;;;;5092548;28;20380;-83
2022/03/25 11:22:07;;;;;;;8.82;3.90;;;18.50;99.90;;;;;;5092916;28;20392;-81
2022/03/25 11:24:53;;;;;;;7.25;3.80;;;18.50;99.90;;;;;;5092336;28;20387;-90
2022/03/25 11:27:27;;;;;;;8.23;3.90;;;18.40;99.90;;;;;;5092217;28;20742;-84
2022/03/25 11:30:09;;;;;;;8.50;3.80;;;18.40;99.90;;;;;;5092929;28;20379;-84
2022/03/25 11:33:04;;;;;;;8.67;3.53;;;18.30;99.90;;;;;;5092237;28;20840;-83
2022/03/25 11:35:36;;;;;;;9.15;3.67;;;18.30;99.90;;;;;;5049897;28;20759;-81
2022/03/25 11:38:22;;;;;;;8.63;3.40;;;18.20;99.90;;;;;;5049924;28;20463;-82
2022/03/25 11:40:52;;;;;;;9.02;3.80;;;18.20;99.90;;;;;;5036037;28;20385;-82
2022/03/25 11:43:28;;;;;;;9.57;3.78;;;18.20;99.90;;;;;;5045019;28;20403;-83
2022/03/25 11:46:00;;;;;;;10.20;3.47;;;18.10;99.90;;;;;;5042329;28;20481;-81
2022/03/25 11:48:27;;;;;;;8.20;3.88;;;18.10;99.90;;;;;;5029763;28;20471;-85
2022/03/25 11:50:55;;;;;;;9.23;3.58;;;18.10;99.90;;;;;;5029871;28;20943;-81
2022/03/25 11:53:23;;;;;;;8.10;3.67;;;18.10;99.90;;;;;;5030106;28;20421;-82
2022/03/25 11:56:10;;;;;;;6.80;3.60;;;18.00;99.90;;;;;;5048127;28;20922;-83
2022/03/25 11:58:58;;;;;;;8.02;4.00;;;18.10;99.90;;;;;;5050142;28;20807;-83
2022/03/25 12:01:25;;;;;;;11.52;3.60;;;18.00;99.90;;;;;;5050283;28;20859;-87
2022/03/25 12:03:59;;;;;;;7.15;3.83;;;18.00;99.90;;;;;;5049189;28;20483;-81
2022/03/25 12:06:28;;;;;;;8.40;3.78;;;18.00;99.90;;;;;;5050676;28;20380;-83
2022/03/25 12:08:59;;;;;;;7.45;3.50;;;17.90;99.90;;;;;;5049435;28;20974;-82
2022/03/25 12:11:56;;;;;;;9.27;4.15;;;17.90;99.90;;;;;;5051900;28;20408;-84
2022/03/25 12:14:31;;;;;;;9.20;3.97;;;17.90;99.90;;;;;;5071753;28;20456;-87
2022/03/25 12:17:11;;;;;;;9.02;4.07;;;17.90;99.90;;;;;;5072164;28;20365;-86
2022/03/25 12:19:54;;;;;;;8.27;4.28;;;17.90;99.90;;;;;;5090188;28;20996;-83
2022/03/25 12:22:21;;;;;;;9.57;4.03;;;17.80;99.90;;;;;;5091721;28;20383;-80
2022/03/25 12:24:49;;;;;;;8.73;3.97;;;17.90;99.90;;;;;;5091485;28;20394;-87
2022/03/25 12:27:17;;;;;;;8.23;3.60;;;17.80;99.90;;;;;;5091635;28;20844;-82
2022/03/25 12:29:51;;;;;;;7.85;3.47;;;17.80;99.90;;;;;;5091976;28;20478;-85
2022/03/25 12:32:21;;;;;;;8.98;3.40;;;17.80;99.90;;;;;;5092037;28;20388;-83
2022/03/25 12:35:05;;;;;;;6.85;3.40;;;17.70;99.90;;;;;;5092276;28;20463;-81
2022/03/25 12:37:36;;;;;;;6.70;3.40;;;17.80;99.90;;;;;;5091358;28;20729;-83
2022/03/25 12:40:19;;;;;;;7.72;3.45;;;17.70;99.90;;;;;;5090950;28;20386;-80
2022/03/25 12:42:52;;;;;;;6.88;3.30;;;17.70;99.90;;;;;;5091155;28;20388;-83
2022/03/25 12:45:40;;;;;;;8.88;3.88;;;17.70;99.90;;;;;;5090745;28;20420;-86
2022/03/25 12:48:14;;;;;;;10.25;3.80;;;17.60;99.90;;;;;;5090849;28;20435;-82
2022/03/25 12:50:55;;;;;;;8.02;3.50;;;17.60;99.90;;;;;;5090898;28;20387;-86
2022/03/25 12:53:28;;;;;;;8.18;3.80;;;17.70;99.90;;;;;;5091013;28;20392;-84
2022/03/25 12:55:56;;;;;;;7.88;3.50;;;17.60;99.90;;;;;;5091054;28;20450;-89
2022/03/25 12:58:24;;;;;;;7.22;3.42;;;17.60;99.90;;;;;;5090612;28;20417;-86
2022/03/25 13:00:53;;;;;;;6.03;2.88;;;17.70;99.90;;;;;;5090897;28;20943;-82
2022/03/25 13:03:24;;;;;;;10.63;3.30;;;17.80;99.90;;;;;;5090572;28;20493;-87